createdAt,value
2023-11-29T00:02:04.558Z,98856.00
2023-11-29T00:04:31.293Z,98866.63
2023-11-29T00:06:57.962Z,98862.41
2023-11-29T00:09:24.671Z,98858.91
2023-11-29T00:11:51.326Z,98872.25
2023-11-29T00:14:18.468Z,98871.53
2023-11-29T00:16:47.049Z,98860.94
2023-11-29T00:19:13.906Z,98866.37
2023-11-29T00:21:44.191Z,98870.91
2023-11-29T00:24:10.938Z,98884.19
2023-11-29T00:26:37.618Z,98870.91
2023-11-29T00:29:04.381Z,98891.19
2023-11-29T00:31:31.043Z,98900.09
2023-11-29T00:33:57.702Z,98916.16
2023-11-29T00:36:25.454Z,98912.66
2023-11-29T00:38:52.077Z,98921.47
2023-11-29T00:41:18.924Z,98928.59
2023-11-29T00:43:45.682Z,98934.84
2023-11-29T00:46:12.357Z,98941.94
2023-11-29T00:48:39.100Z,98959.59
2023-11-29T00:51:06.531Z,98967.41
2023-11-29T00:53:33.253Z,98973.56
2023-11-29T00:56:00.134Z,98989.50
2023-11-29T00:58:27.245Z,99004.56
2023-11-29T01:00:54.009Z,99006.38
2023-11-29T01:03:20.681Z,99016.88
2023-11-29T01:05:47.541Z,99020.50
2023-11-29T01:08:14.370Z,99027.50
2023-11-29T01:10:42.204Z,99030.91
2023-11-29T01:13:08.858Z,99025.59
2023-11-29T01:15:35.536Z,99020.28
2023-11-29T01:18:02.342Z,99033.56
2023-11-29T01:20:29.125Z,99037.12
2023-11-29T01:22:56.231Z,99035.38
2023-11-29T01:25:25.344Z,99044.25
2023-11-29T01:27:52.101Z,99039.78
2023-11-29T01:30:18.723Z,99031.84
2023-11-29T01:32:45.468Z,99042.34
2023-11-29T01:35:12.208Z,99047.66
2023-11-29T01:37:38.810Z,99038.03
2023-11-29T01:40:06.134Z,99043.31
2023-11-29T01:42:32.753Z,99035.38
2023-11-29T01:44:59.590Z,99017.50
2023-11-29T01:47:27.014Z,99018.34
2023-11-29T01:49:53.799Z,99010.41
2023-11-29T01:52:20.433Z,99026.31
2023-11-29T01:54:47.168Z,99033.44
2023-11-29T01:57:14.251Z,99047.56
2023-11-29T01:59:40.945Z,99046.59
2023-11-29T02:02:08.029Z,99032.34
2023-11-29T02:04:34.818Z,99044.69
2023-11-29T02:07:03.249Z,99045.63
2023-11-29T02:09:29.867Z,99049.25
2023-11-29T02:11:56.692Z,99048.28
2023-11-29T02:14:23.425Z,99042.97
2023-11-29T02:16:50.131Z,99046.50
2023-11-29T02:19:16.790Z,99040.22
2023-11-29T02:21:43.389Z,99050.00
2023-11-29T02:24:13.467Z,99070.38
2023-11-29T02:26:40.226Z,99081.00
2023-11-29T02:29:06.949Z,99084.50
2023-11-29T02:31:33.611Z,99101.28
2023-11-29T02:34:00.377Z,99103.09
2023-11-29T02:36:27.030Z,99105.62
2023-11-29T02:38:53.706Z,99108.38
2023-11-29T02:41:20.407Z,99108.38
2023-11-29T02:43:48.998Z,99107.53
2023-11-29T02:46:15.729Z,99118.16
2023-11-29T02:48:42.560Z,99123.47
2023-11-29T02:51:09.212Z,99140.25
2023-11-29T02:53:35.937Z,99141.16
2023-11-29T02:56:02.760Z,99156.25
2023-11-29T02:58:29.469Z,99154.44
2023-11-29T03:00:56.143Z,99163.37
2023-11-29T03:03:22.839Z,99173.00
2023-11-29T03:05:50.358Z,99173.91
2023-11-29T03:08:17.182Z,99170.37
2023-11-29T03:10:43.888Z,99176.63
2023-11-29T03:13:10.586Z,99191.59
2023-11-29T03:15:37.343Z,99195.22
2023-11-29T03:18:04.171Z,99181.94
2023-11-29T03:20:30.944Z,99192.56
2023-11-29T03:22:57.707Z,99201.37
2023-11-29T03:25:24.392Z,99206.69
2023-11-29T03:27:51.021Z,99212.84
2023-11-29T03:30:17.788Z,99205.81
2023-11-29T03:32:44.586Z,99211.97
2023-11-29T03:35:11.583Z,99202.22
2023-11-29T03:37:38.258Z,99207.53
2023-11-29T03:40:05.340Z,99202.22
2023-11-29T03:42:31.979Z,99219.00
2023-11-29T03:44:58.612Z,99212.84
2023-11-29T03:47:25.298Z,99223.44
2023-11-29T03:49:52.002Z,99223.44
2023-11-29T03:52:20.503Z,99228.03
2023-11-29T03:54:47.413Z,99242.03
2023-11-29T03:57:14.038Z,99244.78
2023-11-29T03:59:40.766Z,99242.03
2023-11-29T04:02:07.537Z,99245.56
2023-11-29T04:04:34.300Z,99250.88
2023-11-29T04:07:04.316Z,99249.06
2023-11-29T04:09:31.148Z,99257.03
2023-11-29T04:11:58.153Z,99261.47
2023-11-29T04:14:24.836Z,99276.44
2023-11-29T04:16:51.610Z,99272.00
2023-11-29T04:19:18.622Z,99279.84
2023-11-29T04:21:45.243Z,99288.66
2023-11-29T04:24:11.903Z,99303.66
2023-11-29T04:26:40.041Z,99308.00
2023-11-29T04:29:08.221Z,99306.28
2023-11-29T04:31:36.440Z,99297.38
2023-11-29T04:34:09.465Z,99301.72
2023-11-29T04:36:46.764Z,99311.38
2023-11-29T04:39:14.733Z,99317.53
2023-11-29T04:41:41.809Z,99320.09
2023-11-29T04:44:10.236Z,99334.22
2023-11-29T04:46:37.071Z,99345.81
2023-11-29T04:49:04.198Z,99343.03
2023-11-29T04:51:30.904Z,99344.84
2023-11-29T04:53:57.626Z,99349.31
2023-11-29T04:56:24.684Z,99351.00
2023-11-29T04:58:51.343Z,99346.53
2023-11-29T05:01:18.067Z,99347.38
2023-11-29T05:03:44.827Z,99342.06
2023-11-29T05:06:12.103Z,99341.97
2023-11-29T05:08:38.791Z,99338.47
2023-11-29T05:11:05.908Z,99341.12
2023-11-29T05:13:32.876Z,99345.47
2023-11-29T05:15:59.980Z,99345.37
2023-11-29T05:18:27.816Z,99344.53
2023-11-29T05:20:54.910Z,99353.22
2023-11-29T05:23:22.534Z,99350.59
2023-11-29T05:25:49.461Z,99352.28
2023-11-29T05:28:16.167Z,99346.97
2023-11-29T05:30:43.602Z,99353.03
2023-11-29T05:33:11.050Z,99352.19
2023-11-29T05:35:38.035Z,99367.16
2023-11-29T05:38:04.918Z,99365.34
2023-11-29T05:40:31.573Z,99371.50
2023-11-29T05:42:58.168Z,99372.28
2023-11-29T05:45:24.828Z,99375.78
2023-11-29T05:47:51.628Z,99389.06
2023-11-29T05:50:18.667Z,99388.22
2023-11-29T05:52:45.635Z,99394.44
2023-11-29T05:55:12.747Z,99405.91
2023-11-29T05:57:39.546Z,99395.28
2023-11-29T06:00:23.634Z,99405.00
2023-11-29T06:02:55.518Z,99395.22
2023-11-29T06:05:22.238Z,99412.84
2023-11-29T06:07:50.115Z,99419.13
2023-11-29T06:10:16.953Z,99426.12
2023-11-29T06:12:43.631Z,99424.44
2023-11-29T06:15:10.636Z,99435.91
2023-11-29T06:17:38.177Z,99433.25
2023-11-29T06:20:13.046Z,99441.88
2023-11-29T06:22:40.009Z,99448.88
2023-11-29T06:25:09.051Z,99455.88
2023-11-29T06:27:36.942Z,99470.00
2023-11-29T06:30:05.229Z,99484.13
2023-11-29T06:32:32.678Z,99489.38
2023-11-29T06:34:59.640Z,99492.88
2023-11-29T06:37:26.331Z,99505.19
2023-11-29T06:39:53.217Z,99501.56
2023-11-29T06:42:19.816Z,99509.44
2023-11-29T06:44:46.533Z,99507.66
2023-11-29T06:47:13.294Z,99499.75
2023-11-29T06:49:39.965Z,99504.87
2023-11-29T06:52:07.763Z,99512.84
2023-11-29T06:54:34.758Z,99514.44
2023-11-29T06:57:01.583Z,99512.56
2023-11-29T06:59:28.331Z,99520.56
2023-11-29T07:01:55.238Z,99532.97
2023-11-29T07:04:22.304Z,99530.38
2023-11-29T07:06:49.324Z,99544.63
2023-11-29T07:09:17.755Z,99551.72
2023-11-29T07:11:44.499Z,99552.81
2023-11-29T07:14:11.151Z,99559.81
2023-11-29T07:16:37.997Z,99573.84
2023-11-29T07:19:04.950Z,99578.28
2023-11-29T07:21:31.724Z,99580.00
2023-11-29T07:23:59.704Z,99579.94
2023-11-29T07:26:27.953Z,99595.78
2023-11-29T07:28:54.733Z,99593.00
2023-11-29T07:31:21.459Z,99598.31
2023-11-29T07:33:48.117Z,99596.50
2023-11-29T07:36:14.769Z,99599.09
2023-11-29T07:38:41.925Z,99609.72
2023-11-29T07:41:09.520Z,99611.31
2023-11-29T07:43:36.172Z,99607.63
2023-11-29T07:46:05.219Z,99613.78
2023-11-29T07:48:32.209Z,99606.94
2023-11-29T07:50:59.945Z,99610.56
2023-11-29T07:53:26.760Z,99617.47
2023-11-29T07:55:53.470Z,99621.84
2023-11-29T07:58:24.960Z,99634.06
2023-11-29T08:00:58.208Z,99631.53
2023-11-29T08:03:25.353Z,99634.47
2023-11-29T08:05:52.227Z,99638.38
2023-11-29T08:08:19.194Z,99641.47
2023-11-29T08:10:48.358Z,99641.09
2023-11-29T08:13:15.104Z,99645.13
2023-11-29T08:15:42.366Z,99638.75
2023-11-29T08:18:10.666Z,99643.72
2023-11-29T08:20:38.236Z,99644.06
2023-11-29T08:23:04.958Z,99645.59
2023-11-29T08:25:31.722Z,99656.69
2023-11-29T08:27:58.378Z,99662.78
2023-11-29T08:30:25.142Z,99660.88
2023-11-29T08:32:52.012Z,99667.56
2023-11-29T08:35:18.718Z,99667.09
2023-11-29T08:37:45.395Z,99679.06
2023-11-29T08:40:12.201Z,99677.75
2023-11-29T08:42:40.644Z,99692.28
2023-11-29T08:45:08.902Z,99689.22
2023-11-29T08:47:36.068Z,99699.41
2023-11-29T08:50:03.201Z,99705.03
2023-11-29T08:52:29.866Z,99699.31
2023-11-29T08:54:56.527Z,99704.94
2023-11-29T08:57:24.258Z,99710.72
2023-11-29T08:59:51.699Z,99713.81
2023-11-29T09:02:22.820Z,99720.38
2023-11-29T09:04:50.064Z,99726.87
2023-11-29T09:07:17.824Z,99731.56
2023-11-29T09:09:48.682Z,99736.25
2023-11-29T09:12:19.025Z,99733.00
2023-11-29T09:14:45.770Z,99727.94
2023-11-29T09:17:12.602Z,99723.00
2023-11-29T09:19:39.422Z,99731.19
2023-11-29T09:22:06.096Z,99738.41
2023-11-29T09:24:32.823Z,99743.81
2023-11-29T09:27:00.692Z,99742.16
2023-11-29T09:29:27.669Z,99748.53
2023-11-29T09:31:54.523Z,99751.19
2023-11-29T09:34:22.146Z,99755.75
2023-11-29T09:36:49.042Z,99752.47
2023-11-29T09:39:18.578Z,99751.72
2023-11-29T09:41:45.771Z,99747.44
2023-11-29T09:44:13.381Z,99753.75
2023-11-29T09:46:40.050Z,99759.19
2023-11-29T09:49:06.811Z,99757.56
2023-11-29T09:51:33.719Z,99756.87
2023-11-29T09:54:00.463Z,99763.09
2023-11-29T09:56:28.910Z,99760.50
2023-11-29T09:58:57.112Z,99766.66
2023-11-29T10:01:23.916Z,99771.66
2023-11-29T10:04:07.189Z,99769.00
2023-11-29T10:06:36.220Z,99772.87
2023-11-29T10:09:08.320Z,99769.38
2023-11-29T10:11:35.258Z,99773.81
2023-11-29T10:14:05.535Z,99773.59
2023-11-29T10:16:33.099Z,99774.16
2023-11-29T10:19:05.008Z,99777.03
2023-11-29T10:21:32.093Z,99778.88
2023-11-29T10:23:58.914Z,99763.94
2023-11-29T10:26:28.131Z,99764.00
2023-11-29T10:28:55.234Z,99772.75
2023-11-29T10:31:23.011Z,99771.84
2023-11-29T10:33:50.018Z,99779.06
2023-11-29T10:36:18.346Z,99774.56
2023-11-29T10:38:49.525Z,99770.19
2023-11-29T10:41:17.548Z,99772.44
2023-11-29T10:43:44.277Z,99767.59
2023-11-29T10:46:17.278Z,99761.88
2023-11-29T10:48:47.105Z,99762.34
2023-11-29T10:51:13.953Z,99754.59
2023-11-29T10:53:41.165Z,99762.56
2023-11-29T10:56:09.380Z,99765.47
2023-11-29T10:58:42.973Z,99769.28
2023-11-29T11:01:10.992Z,99764.63
2023-11-29T11:03:42.499Z,99774.13
2023-11-29T11:06:24.960Z,99773.09
2023-11-29T11:08:52.156Z,99772.97
2023-11-29T11:11:41.691Z,99771.03
2023-11-29T11:14:29.279Z,99789.72
2023-11-29T11:16:56.131Z,99777.72
2023-11-29T11:19:36.095Z,99788.50
2023-11-29T11:22:03.620Z,99782.88
2023-11-29T11:25:14.116Z,99790.44
2023-11-29T11:27:48.258Z,99782.03
2023-11-29T11:30:26.894Z,99787.16
2023-11-29T11:32:57.679Z,99778.19
2023-11-29T11:35:35.463Z,99777.81
2023-11-29T11:38:09.538Z,99773.75
2023-11-29T11:40:39.329Z,99780.75
2023-11-29T11:43:06.654Z,99776.28
2023-11-29T11:45:33.774Z,99785.66
2023-11-29T11:48:05.287Z,99783.00
2023-11-29T11:50:32.232Z,99785.06
2023-11-29T11:53:00.901Z,99789.63
2023-11-29T11:55:31.123Z,99780.56
2023-11-29T11:58:01.310Z,99786.31
2023-11-29T12:00:29.071Z,99786.81
2023-11-29T12:02:55.761Z,99785.72
2023-11-29T12:05:22.828Z,99791.88
2023-11-29T12:07:50.108Z,99789.19
2023-11-29T12:10:16.994Z,99789.91
2023-11-29T12:12:44.465Z,99802.28
2023-11-29T12:15:16.153Z,99797.13
2023-11-29T12:17:43.199Z,99806.81
2023-11-29T12:20:10.298Z,99806.56
2023-11-29T12:22:41.942Z,99806.28
2023-11-29T12:25:16.421Z,99806.00
2023-11-29T12:27:51.890Z,99817.22
2023-11-29T12:30:18.928Z,99822.31
2023-11-29T12:32:45.735Z,99812.19
2023-11-29T12:35:16.824Z,99816.34
2023-11-29T12:37:44.800Z,99815.16
2023-11-29T12:40:12.479Z,99810.44
2023-11-29T12:42:40.031Z,99811.84
2023-11-29T12:45:07.418Z,99821.09
2023-11-29T12:47:35.129Z,99825.06
2023-11-29T12:50:02.597Z,99822.00
2023-11-29T12:52:29.347Z,99817.13
2023-11-29T12:54:56.052Z,99818.47
2023-11-29T12:57:22.789Z,99816.44
2023-11-29T12:59:54.791Z,99819.66
2023-11-29T13:02:21.553Z,99814.81
2023-11-29T13:04:48.313Z,99809.06
2023-11-29T13:07:16.412Z,99809.59
2023-11-29T13:09:43.452Z,99817.13
2023-11-29T13:12:10.144Z,99814.81
2023-11-29T13:14:42.704Z,99822.34
2023-11-29T13:17:13.279Z,99826.28
2023-11-29T13:19:41.452Z,99831.13
2023-11-29T13:22:08.427Z,99834.25
2023-11-29T13:24:35.220Z,99839.78
2023-11-29T13:27:01.945Z,99849.03
2023-11-29T13:29:28.617Z,99842.41
2023-11-29T13:31:55.293Z,99847.87
2023-11-29T13:34:22.059Z,99857.00
2023-11-29T13:36:49.242Z,99864.44
2023-11-29T13:39:16.501Z,99857.47
2023-11-29T13:41:43.181Z,99869.25
2023-11-29T13:44:09.848Z,99868.62
2023-11-29T13:46:36.677Z,99874.94
2023-11-29T13:49:05.139Z,99876.09
2023-11-29T13:51:31.878Z,99879.00
2023-11-29T13:53:58.508Z,99870.34
2023-11-29T13:56:25.685Z,99884.69
2023-11-29T13:58:52.435Z,99883.03
2023-11-29T14:01:19.181Z,99884.84
2023-11-29T14:03:47.125Z,99889.03
2023-11-29T14:06:15.458Z,99895.81
2023-11-29T14:08:43.628Z,99894.31
2023-11-29T14:11:10.387Z,99899.84
2023-11-29T14:13:37.125Z,99900.09
2023-11-29T14:16:04.061Z,99891.47
2023-11-29T14:18:30.821Z,99901.22
2023-11-29T14:20:57.525Z,99898.44
2023-11-29T14:23:24.232Z,99895.66
2023-11-29T14:25:51.189Z,99897.19
2023-11-29T14:28:18.238Z,99907.56
2023-11-29T14:30:45.281Z,99904.56
2023-11-29T14:33:12.185Z,99912.22
2023-11-29T14:35:39.126Z,99923.47
2023-11-29T14:38:05.876Z,99914.66
2023-11-29T14:40:32.646Z,99917.34
2023-11-29T14:43:00.609Z,99921.31
2023-11-29T14:45:27.394Z,99927.31
2023-11-29T14:47:55.567Z,99928.06
2023-11-29T14:50:22.609Z,99936.59
2023-11-29T14:52:49.307Z,99937.97
2023-11-29T14:55:16.087Z,99941.84
2023-11-29T14:57:42.842Z,99944.03
2023-11-29T15:00:12.282Z,99952.28
2023-11-29T15:02:39.069Z,99952.12
2023-11-29T15:05:06.072Z,99952.88
2023-11-29T15:07:32.732Z,99946.63
2023-11-29T15:09:59.643Z,99950.13
2023-11-29T15:12:26.289Z,99959.81
2023-11-29T15:14:53.066Z,99951.72
2023-11-29T15:17:19.765Z,99956.63
2023-11-29T15:19:46.435Z,99958.81
2023-11-29T15:22:13.269Z,99960.41
2023-11-29T15:24:41.999Z,99960.22
2023-11-29T15:27:08.702Z,99971.59
2023-11-29T15:29:35.448Z,99966.19
2023-11-29T15:32:02.308Z,99975.78
2023-11-29T15:34:29.101Z,99985.19
2023-11-29T15:36:55.899Z,99968.94
2023-11-29T15:39:22.620Z,99978.25
2023-11-29T15:41:49.426Z,99985.66
2023-11-29T15:44:16.120Z,99981.34
2023-11-29T15:46:43.072Z,99978.97
2023-11-29T15:49:09.783Z,99974.41
2023-11-29T15:51:36.535Z,99977.81
2023-11-29T15:54:03.842Z,99984.72
2023-11-29T15:56:34.675Z,99984.84
2023-11-29T15:59:01.792Z,99974.41
2023-11-29T16:01:28.630Z,99978.22
2023-11-29T16:03:57.105Z,99981.22
2023-11-29T16:06:24.052Z,99975.75
2023-11-29T16:08:51.003Z,99979.94
2023-11-29T16:11:17.742Z,99983.31
2023-11-29T16:13:45.539Z,99983.31
2023-11-29T16:16:12.556Z,99986.72
2023-11-29T16:18:39.681Z,99996.47
2023-11-29T16:21:06.970Z,99995.50
2023-11-29T16:23:33.737Z,100005.00
2023-11-29T16:26:01.092Z,100011.03
2023-11-29T16:28:28.132Z,100016.87
2023-11-29T16:30:54.921Z,100020.09
2023-11-29T16:33:21.830Z,100018.84
2023-11-29T16:35:48.627Z,100020.28
2023-11-29T16:38:15.324Z,100021.66
2023-11-29T16:40:44.338Z,100019.44
2023-11-29T16:43:11.847Z,100025.38
2023-11-29T16:45:38.683Z,100024.06
2023-11-29T16:48:06.031Z,100028.09
2023-11-29T16:50:35.022Z,100033.84
2023-11-29T16:53:04.349Z,100036.06
2023-11-29T16:55:34.628Z,100037.41
2023-11-29T16:58:01.286Z,100031.62
2023-11-29T17:00:27.883Z,100032.97
2023-11-29T17:02:54.777Z,100035.22
2023-11-29T17:05:21.685Z,100040.06
2023-11-29T17:07:48.410Z,100042.25
2023-11-29T17:10:16.180Z,100054.97
2023-11-29T17:12:42.956Z,100041.25
2023-11-29T17:15:10.035Z,100047.84
2023-11-29T17:17:37.906Z,100046.41
2023-11-29T17:20:04.949Z,100046.84
2023-11-29T17:22:31.587Z,100050.69
2023-11-29T17:24:58.223Z,100051.94
2023-11-29T17:27:24.844Z,100054.81
2023-11-29T17:29:51.658Z,100054.25
2023-11-29T17:32:18.342Z,100053.72
2023-11-29T17:34:45.292Z,100049.59
2023-11-29T17:37:15.931Z,100048.94
2023-11-29T17:39:45.356Z,100055.31
2023-11-29T17:42:12.255Z,100056.50
2023-11-29T17:44:39.102Z,100054.91
2023-11-29T17:47:05.768Z,100064.78
2023-11-29T17:49:33.054Z,100063.22
2023-11-29T17:51:59.803Z,100058.22
2023-11-29T17:54:26.588Z,100058.38
2023-11-29T17:56:53.466Z,100066.53
2023-11-29T17:59:20.880Z,100060.59
2023-11-29T18:01:47.770Z,100059.75
2023-11-29T18:04:14.622Z,100067.59
2023-11-29T18:06:41.415Z,100065.59
2023-11-29T18:09:09.840Z,100066.09
2023-11-29T18:11:36.785Z,100073.47
2023-11-29T18:14:03.515Z,100066.59
2023-11-29T18:16:30.665Z,100079.19
2023-11-29T18:18:58.150Z,100077.56
2023-11-29T18:21:24.772Z,100073.78
2023-11-29T18:23:52.216Z,100077.81
2023-11-29T18:26:18.990Z,100076.69
2023-11-29T18:28:48.449Z,100074.66
2023-11-29T18:31:21.238Z,100078.72
2023-11-29T18:33:48.062Z,100081.03
2023-11-29T18:36:15.839Z,100073.75
2023-11-29T18:38:42.620Z,100080.78
2023-11-29T18:41:09.434Z,100075.81
2023-11-29T18:43:36.189Z,100084.09
2023-11-29T18:46:02.848Z,100080.22
2023-11-29T18:48:29.731Z,100080.06
2023-11-29T18:50:56.644Z,100085.00
2023-11-29T18:53:23.322Z,100074.78
2023-11-29T18:55:49.963Z,100077.81
2023-11-29T18:58:16.867Z,100079.03
2023-11-29T19:00:43.726Z,100082.06
2023-11-29T19:03:10.600Z,100088.09
2023-11-29T19:05:38.111Z,100088.66
2023-11-29T19:08:04.872Z,100092.09
2023-11-29T19:10:31.518Z,100099.13
2023-11-29T19:12:58.223Z,100095.41
2023-11-29T19:15:24.921Z,100096.84
2023-11-29T19:17:51.823Z,100102.66
2023-11-29T19:20:18.738Z,100103.97
2023-11-29T19:22:45.398Z,100109.81
2023-11-29T19:25:13.269Z,100107.72
2023-11-29T19:27:41.819Z,100115.31
2023-11-29T19:30:09.202Z,100106.47
2023-11-29T19:32:36.009Z,100109.13
2023-11-29T19:35:03.223Z,100117.12
2023-11-29T19:37:30.468Z,100111.91
2023-11-29T19:39:57.127Z,100122.44
2023-11-29T19:42:23.780Z,100116.25
2023-11-29T19:44:50.712Z,100119.78
2023-11-29T19:49:47.422Z,100117.00
2023-11-29T19:52:14.067Z,100118.75
2023-11-29T19:54:40.732Z,100120.34
2023-11-29T19:57:07.475Z,100125.69
2023-11-29T19:59:34.220Z,100121.13
2023-11-29T20:02:00.932Z,100127.38
2023-11-29T20:04:27.841Z,100131.28
2023-11-29T20:06:54.587Z,100142.31
2023-11-29T20:09:22.321Z,100136.69
2023-11-29T20:11:49.444Z,100135.53
2023-11-29T20:14:19.933Z,100139.78
2023-11-29T20:16:52.828Z,100142.22
2023-11-29T20:19:19.880Z,100133.31
2023-11-29T20:21:46.613Z,100131.47
2023-11-29T20:24:13.348Z,100128.66
2023-11-29T20:26:40.120Z,100126.62
2023-11-29T20:29:06.947Z,100122.78
2023-11-29T20:31:35.720Z,100125.97
2023-11-29T20:34:03.027Z,100131.75
2023-11-29T20:36:29.795Z,100129.63
2023-11-29T20:38:57.576Z,100130.28
2023-11-29T20:41:24.334Z,100121.91
2023-11-29T20:43:51.161Z,100124.19
2023-11-29T20:46:17.906Z,100130.00
2023-11-29T20:48:44.554Z,100127.00
2023-11-29T20:51:11.218Z,100131.84
2023-11-29T20:53:37.897Z,100134.00
2023-11-29T20:56:04.829Z,100134.44
2023-11-29T20:58:33.370Z,100141.06
2023-11-29T21:01:00.010Z,100143.25
2023-11-29T21:03:26.863Z,100133.13
2023-11-29T21:05:53.685Z,100135.28
2023-11-29T21:08:20.406Z,100134.84
2023-11-29T21:10:48.202Z,100135.22
2023-11-29T21:13:17.329Z,100137.38
2023-11-29T21:15:44.026Z,100142.25
2023-11-29T21:18:13.566Z,100128.47
2023-11-29T21:20:42.854Z,100137.62
2023-11-29T21:23:11.222Z,100129.13
2023-11-29T21:25:37.895Z,100132.09
2023-11-29T21:28:04.604Z,100132.31
2023-11-29T21:30:31.297Z,100138.84
2023-11-29T21:32:58.080Z,100140.84
2023-11-29T21:35:25.236Z,100146.34
2023-11-29T21:37:51.978Z,100137.84
2023-11-29T21:40:18.664Z,100143.38
2023-11-29T21:42:45.567Z,100148.03
2023-11-29T21:45:12.373Z,100144.72
2023-11-29T21:47:39.314Z,100138.81
2023-11-29T21:50:07.567Z,100144.31
2023-11-29T21:52:34.343Z,100139.22
2023-11-29T21:55:01.009Z,100141.19
2023-11-29T21:57:27.783Z,100135.25
2023-11-29T21:59:54.497Z,100133.72
2023-11-29T22:02:21.191Z,100137.38
2023-11-29T22:04:47.810Z,100139.16
2023-11-29T22:07:14.703Z,100138.09
2023-11-29T22:09:42.557Z,100137.66
2023-11-29T22:12:09.271Z,100139.00
2023-11-29T22:14:36.020Z,100133.94
2023-11-29T22:17:03.323Z,100122.69
2023-11-29T22:19:30.012Z,100117.59
2023-11-29T22:21:57.940Z,100109.59
2023-11-29T22:24:25.992Z,100110.34
2023-11-29T22:26:57.402Z,100104.03
2023-11-29T22:29:26.537Z,100097.69
2023-11-29T22:31:54.305Z,100086.91
2023-11-29T22:34:21.449Z,100094.53
2023-11-29T22:36:48.943Z,100082.91
2023-11-29T22:39:15.654Z,100082.84
2023-11-29T22:41:42.351Z,100083.88
2023-11-29T22:44:10.783Z,100075.28
2023-11-29T22:46:37.758Z,100089.09
2023-11-29T22:49:07.948Z,100091.50
2023-11-29T22:51:34.597Z,100093.81
2023-11-29T22:54:04.397Z,100094.31
2023-11-29T22:56:37.506Z,100090.38
2023-11-29T22:59:05.332Z,100085.53
2023-11-29T23:01:35.299Z,100081.59
2023-11-29T23:04:05.249Z,100088.63
2023-11-29T23:06:32.992Z,100086.03
2023-11-29T23:09:00.323Z,100086.28
2023-11-29T23:11:27.113Z,100098.06
2023-11-29T23:13:53.915Z,100097.56
2023-11-29T23:16:20.961Z,100097.06
2023-11-29T23:18:48.383Z,100083.25
2023-11-29T23:21:15.305Z,100080.97
2023-11-29T23:23:44.488Z,100073.22
2023-11-29T23:26:11.691Z,100080.50
2023-11-29T23:28:38.344Z,100081.53
2023-11-29T23:31:05.340Z,100082.50
2023-11-29T23:33:32.240Z,100078.03
2023-11-29T23:35:59.016Z,100076.31
2023-11-29T23:38:25.733Z,100071.03
2023-11-29T23:40:52.576Z,100069.28
2023-11-29T23:43:19.621Z,100075.44
2023-11-29T23:45:46.369Z,100079.06
2023-11-29T23:48:13.157Z,100077.19
2023-11-29T23:50:39.889Z,100076.31
2023-11-29T23:53:06.585Z,100079.84
2023-11-29T23:55:33.255Z,100078.88
2023-11-29T23:57:59.936Z,100074.53
